Aérodrome :
LOGIN :

S'inscrire | Disclaimer

   EN    FR    IT 

 










Légende :    VFR   VFR Marginal   IFR   IFR Intensif   IFR Très Intensif
Visi : 
Plafond : 
>= 8 km
>= 3000ft
5 à 8 km
1000 à 3000 ft
1500m à 5 km
500 à 1000 ft
800 à 1500m
200 à 500 ft
< 800m
< 200 ft
Symboles :   Orages  Brouillard  Fortes neiges  Fortes précipitations  Vent > 20 kt
SIGMETs :   Divers  Orages  Givrage  Turbulence  Onde Orograph.  Cendres Volcan.







- Altitude de l'aérodrome : 30 ft
- Code IATA : CFN


EIDL - Donegal

DERNIER METAR :
  • 131800Z 28016KT 9999 -RA SCT020 BKN044 05/02 Q0986

METARs EXPIRÉS :
  • 131730Z 28016KT 9999 -RA FEW017 04/02 Q0986
  • 131700Z 29018KT 9999 FEW027 05/01 Q0986
  • 131630Z 30023KT 9999 FEW030 05/01 Q0986
  • 131600Z 29026KT 8000 RA BKN023 BKN028 05/01 Q0985
  • 131530Z 29014KT 9999 FEW013 05/00 Q0985

TAF TAF EIDL
Valide du 13 à 18h jusqu'au 13 à 21h UTC


131700Z 1318/1321 30023G33KT 9999 SCT018CB
TEMPO 1318/1321 3000 SHRAGS BKN010 BKN020CB
BECMG 1318/1320 28015G28KT
PROB30
TEMPO 1318/1321 1500 TSGS BKN006
Pas de NOTAMs connus pour ce terrain.



MET'MAP, la Météo Aéronautique d'un coup d'oeil ! - Copyright ORBIFLY Décembre 2007 - Disclaimer

ORBIFLY MET'MAP TEAM :

Programmation & Développement : Alexandra Zaïnal
Conception & Développement : Baudouin d'Aumeries
Co-Programmation & Développement : Marc-Olivier Méhu
Soutien technique & logistique : Manuel Goepfert

Contact : metmap@orbifly.com




SOURCES & CREDITS :

   NOAA